Time;durP1;ratioP1;P1;durP2;ratioP2;P2;SDS_P1;SDS_P2;PMS_P1;PMS_P2;Temp;Humidity;BMP_temperature;BMP_pressure;BME280_temperature;BME280_humidity;BME280_pressure;Samples;Min_cycle;Max_cycle;Signal;HPM_P1;HPM_P2
2023/04/01 00:01:28;;;;;;;12.50;12.07;;;9.80;99.90;;;;;;4877381;29;20462;-75
2023/04/01 00:03:55;;;;;;;12.60;12.20;;;9.80;99.90;;;;;;4877026;29;20495;-75
2023/04/01 00:06:22;;;;;;;11.77;11.37;;;9.80;99.90;;;;;;4877106;29;20464;-75
2023/04/01 00:08:49;;;;;;;12.20;11.70;;;9.80;99.90;;;;;;4884816;29;20966;-75
2023/04/01 00:11:18;;;;;;;12.70;12.20;;;9.80;99.90;;;;;;4895999;29;20463;-75
2023/04/01 00:13:45;;;;;;;12.37;11.87;;;9.90;99.90;;;;;;4895702;29;20579;-75
2023/04/01 00:16:12;;;;;;;12.17;11.67;;;9.90;99.90;;;;;;4895653;29;20493;-74
2023/04/01 00:18:39;;;;;;;11.57;11.07;;;9.90;99.90;;;;;;4895784;29;20455;-75
2023/04/01 00:21:06;;;;;;;11.50;11.20;;;10.00;99.90;;;;;;4895632;29;20447;-75
2023/04/01 00:23:33;;;;;;;11.77;11.30;;;10.00;99.90;;;;;;4895752;29;20870;-75
2023/04/01 00:26:00;;;;;;;12.37;11.87;;;10.00;99.90;;;;;;4895297;29;20466;-75
2023/04/01 00:28:29;;;;;;;13.70;12.60;;;10.00;99.90;;;;;;4895754;29;20474;-75
2023/04/01 00:30:55;;;;;;;12.37;11.70;;;10.00;99.90;;;;;;4895398;29;20836;-75
2023/04/01 00:33:22;;;;;;;12.73;12.20;;;9.90;99.90;;;;;;4895789;29;20863;-75
2023/04/01 00:35:49;;;;;;;12.20;11.40;;;9.90;99.90;;;;;;4895552;29;20588;-75
2023/04/01 00:38:16;;;;;;;12.10;11.50;;;9.90;99.90;;;;;;4895577;29;20462;-75
2023/04/01 00:40:45;;;;;;;11.30;10.70;;;9.90;99.90;;;;;;4895413;29;20474;-75
2023/04/01 00:43:14;;;;;;;13.13;12.03;;;9.90;99.90;;;;;;4895281;29;21033;-75
2023/04/01 00:45:43;;;;;;;14.03;13.20;;;9.90;99.90;;;;;;4895295;29;20455;-76
2023/04/01 00:48:13;;;;;;;14.00;13.30;;;9.90;99.90;;;;;;4895228;29;20462;-75
2023/04/01 00:50:43;;;;;;;12.97;12.27;;;9.90;99.90;;;;;;4895033;29;21017;-75
2023/04/01 00:53:10;;;;;;;12.77;12.13;;;9.90;99.90;;;;;;4894989;29;20621;-75
2023/04/01 00:55:42;;;;;;;12.70;12.20;;;10.00;99.90;;;;;;4895255;29;20463;-75
2023/04/01 00:58:14;;;;;;;13.13;12.73;;;10.00;99.90;;;;;;4895125;29;20460;-75
2023/04/01 01:00:43;;;;;;;13.00;12.60;;;9.90;99.90;;;;;;4895159;29;20456;-76
2023/04/01 01:03:10;;;;;;;12.73;12.13;;;9.80;99.90;;;;;;4895125;29;20828;-76
2023/04/01 01:05:56;;;;;;;13.03;12.43;;;9.80;99.90;;;;;;4895078;29;20464;-75
2023/04/01 01:08:36;;;;;;;13.27;12.57;;;9.80;99.90;;;;;;4894860;29;20481;-76
2023/04/01 01:11:05;;;;;;;12.30;11.80;;;9.90;99.90;;;;;;4894948;29;20549;-75
2023/04/01 01:13:40;;;;;;;15.03;14.43;;;9.80;99.90;;;;;;4895137;29;20458;-73
2023/04/01 01:16:15;;;;;;;16.70;15.90;;;9.80;99.90;;;;;;4894750;29;20458;-74
2023/04/01 01:18:48;;;;;;;16.07;15.47;;;9.70;99.90;;;;;;4894774;29;20455;-73
2023/04/01 01:21:53;;;;;;;17.63;16.83;;;9.60;99.90;;;;;;4895007;29;20542;-75
2023/04/01 01:25:03;;;;;;;17.83;16.70;;;9.60;99.90;;;;;;4889906;29;20465;-75
2023/04/01 01:27:31;;;;;;;16.30;15.67;;;9.60;99.90;;;;;;4868177;29;20981;-76
2023/04/01 01:30:33;;;;;;;17.23;16.50;;;9.60;99.90;;;;;;4894759;29;21001;-75
2023/04/01 01:33:22;;;;;;;15.87;15.27;;;9.70;99.90;;;;;;4850815;29;20469;-76
2023/04/01 01:35:52;;;;;;;15.40;14.80;;;9.70;99.90;;;;;;4872074;29;20449;-76
2023/04/01 01:38:23;;;;;;;15.07;14.47;;;9.70;99.90;;;;;;4874182;29;20471;-76
2023/04/01 01:40:53;;;;;;;14.87;13.90;;;9.70;99.90;;;;;;4875463;29;20464;-76
2023/04/01 01:43:24;;;;;;;14.53;13.93;;;9.70;99.90;;;;;;4874350;29;20483;-76
2023/04/01 01:45:55;;;;;;;14.40;13.83;;;9.70;99.90;;;;;;4874334;29;20452;-76
2023/04/01 01:48:25;;;;;;;15.20;14.60;;;9.80;99.90;;;;;;4874320;29;20831;-75
2023/04/01 01:50:54;;;;;;;14.50;14.00;;;9.80;99.90;;;;;;4874271;29;20480;-75
2023/04/01 01:53:21;;;;;;;17.13;16.43;;;9.80;99.90;;;;;;4874132;29;20962;-73
2023/04/01 01:55:48;;;;;;;18.17;17.47;;;9.70;99.90;;;;;;4874547;29;20458;-73
2023/04/01 01:58:20;;;;;;;18.17;17.40;;;9.70;99.90;;;;;;4874562;29;20448;-73
2023/04/01 02:00:51;;;;;;;18.60;17.80;;;9.70;99.90;;;;;;4872497;29;20453;-74
2023/04/01 02:03:20;;;;;;;19.73;18.93;;;9.60;99.90;;;;;;4874354;29;20464;-72
2023/04/01 02:05:48;;;;;;;19.93;19.10;;;9.50;99.90;;;;;;4872231;29;20449;-73
2023/04/01 02:08:21;;;;;;;18.57;17.87;;;9.40;99.90;;;;;;4874237;29;20461;-73
2023/04/01 02:10:54;;;;;;;19.07;17.97;;;9.40;99.90;;;;;;4872309;29;20563;-73
2023/04/01 02:13:28;;;;;;;18.17;17.43;;;9.40;99.90;;;;;;4873963;29;21029;-73
2023/04/01 02:16:00;;;;;;;18.20;17.40;;;9.40;99.90;;;;;;4874050;29;20470;-74
2023/04/01 02:18:28;;;;;;;18.97;18.17;;;9.40;99.90;;;;;;4871920;29;20456;-74
2023/04/01 02:20:58;;;;;;;16.83;16.23;;;9.40;99.90;;;;;;4873897;29;20547;-76
2023/04/01 02:23:27;;;;;;;18.27;17.57;;;9.30;99.90;;;;;;4871468;29;20496;-74
2023/04/01 02:25:55;;;;;;;17.50;16.80;;;9.30;99.90;;;;;;4874092;29;20499;-76
2023/04/01 02:28:23;;;;;;;17.13;16.20;;;9.40;99.90;;;;;;4873986;29;20459;-76
2023/04/01 02:30:51;;;;;;;16.50;15.80;;;9.40;99.90;;;;;;4874070;29;20484;-75
2023/04/01 02:33:19;;;;;;;17.10;16.30;;;9.40;99.90;;;;;;4874084;29;20453;-77
2023/04/01 02:35:46;;;;;;;17.00;16.40;;;9.40;99.90;;;;;;4871995;29;20449;-76
2023/04/01 02:38:15;;;;;;;17.10;16.50;;;9.40;99.90;;;;;;4874169;29;20462;-76
2023/04/01 02:40:46;;;;;;;15.40;14.90;;;9.40;99.90;;;;;;4874002;29;20448;-75
2023/04/01 02:43:12;;;;;;;14.30;13.70;;;9.40;99.90;;;;;;4873651;29;20471;-75
2023/04/01 02:45:39;;;;;;;14.10;13.60;;;9.30;99.90;;;;;;4874144;29;20482;-76
2023/04/01 02:48:06;;;;;;;14.00;13.40;;;9.30;99.90;;;;;;4873584;29;20461;-79
2023/04/01 02:50:33;;;;;;;16.03;15.33;;;9.20;99.90;;;;;;4877046;29;20488;-79
2023/04/01 02:53:00;;;;;;;13.40;12.90;;;9.20;99.90;;;;;;4876961;29;20452;-81
2023/04/01 02:55:26;;;;;;;14.37;13.87;;;9.20;99.90;;;;;;4877789;29;20467;-78
2023/04/01 02:57:54;;;;;;;13.40;13.00;;;9.10;99.90;;;;;;4877571;29;20459;-78
2023/04/01 03:00:21;;;;;;;13.40;13.00;;;9.20;99.90;;;;;;4876593;29;20567;-79
2023/04/01 03:02:48;;;;;;;11.87;11.47;;;9.20;99.90;;;;;;4876860;29;20811;-79
2023/04/01 03:05:15;;;;;;;12.60;12.20;;;9.20;99.90;;;;;;4876608;29;20987;-79
2023/04/01 03:07:42;;;;;;;13.00;12.50;;;9.30;99.90;;;;;;4876216;29;20833;-78
2023/04/01 03:10:09;;;;;;;12.23;11.83;;;9.30;99.90;;;;;;4876214;29;20492;-81
2023/04/01 03:12:36;;;;;;;11.40;11.10;;;9.30;99.90;;;;;;4876378;29;20677;-80
2023/04/01 03:15:05;;;;;;;11.63;11.23;;;9.30;99.90;;;;;;4877363;29;20464;-81
2023/04/01 03:17:32;;;;;;;12.43;11.90;;;9.30;99.90;;;;;;4877926;29;20464;-82
2023/04/01 03:19:59;;;;;;;11.77;11.27;;;9.30;99.90;;;;;;4877772;29;20801;-82
2023/04/01 03:22:26;;;;;;;12.50;12.10;;;9.30;99.90;;;;;;4877638;29;20460;-83
2023/04/01 03:24:52;;;;;;;12.43;11.93;;;9.40;99.90;;;;;;4877657;29;20663;-83
2023/04/01 03:27:19;;;;;;;12.53;11.90;;;9.40;99.90;;;;;;4877426;29;20471;-83
2023/04/01 03:29:46;;;;;;;12.80;12.40;;;9.30;99.90;;;;;;4877558;29;20464;-82
2023/04/01 03:32:14;;;;;;;12.17;11.77;;;9.20;99.90;;;;;;4877187;29;20491;-82
2023/04/01 03:34:40;;;;;;;12.60;12.00;;;9.10;99.90;;;;;;4877572;29;20958;-84
2023/04/01 03:37:07;;;;;;;11.27;10.87;;;9.20;99.90;;;;;;4877345;29;20471;-83
2023/04/01 03:39:34;;;;;;;11.50;11.20;;;9.20;99.90;;;;;;4877384;29;20465;-82
2023/04/01 03:42:01;;;;;;;13.40;12.83;;;9.30;99.90;;;;;;4877530;29;20468;-82
2023/04/01 03:44:31;;;;;;;12.00;11.70;;;9.30;99.90;;;;;;4876801;29;20488;-82
2023/04/01 03:46:58;;;;;;;11.63;11.33;;;9.40;99.90;;;;;;4877154;29;20471;-81
2023/04/01 03:49:26;;;;;;;12.27;11.80;;;9.40;99.90;;;;;;4877096;29;20463;-82
2023/04/01 03:51:53;;;;;;;11.93;11.53;;;9.50;99.90;;;;;;4876890;29;20488;-82
2023/04/01 03:54:20;;;;;;;12.00;11.50;;;9.50;99.90;;;;;;4877157;29;20950;-81
2023/04/01 03:56:47;;;;;;;12.90;12.20;;;9.50;99.90;;;;;;4877320;29;20496;-81
2023/04/01 03:59:13;;;;;;;11.70;11.30;;;9.50;99.90;;;;;;4877025;29;20970;-78
2023/04/01 04:01:40;;;;;;;10.80;10.50;;;9.50;99.90;;;;;;4876117;29;20452;-78
2023/04/01 04:04:08;;;;;;;12.60;12.10;;;9.50;99.90;;;;;;4876849;29;20840;-77
2023/04/01 04:06:36;;;;;;;11.93;11.47;;;9.40;99.90;;;;;;4876829;29;20463;-77
2023/04/01 04:09:02;;;;;;;13.50;13.10;;;9.30;99.90;;;;;;4876863;29;20463;-77
2023/04/01 04:11:31;;;;;;;11.63;11.10;;;9.20;99.90;;;;;;4876735;29;20870;-79
2023/04/01 04:13:58;;;;;;;11.57;11.07;;;9.20;99.90;;;;;;4876643;29;20465;-78
2023/04/01 04:16:25;;;;;;;12.03;11.37;;;9.10;99.90;;;;;;4876609;29;20471;-78
2023/04/01 04:18:52;;;;;;;12.20;11.60;;;9.10;99.90;;;;;;4876773;29;20464;-79
2023/04/01 04:21:18;;;;;;;11.30;10.80;;;9.00;99.90;;;;;;4876861;29;20447;-79
2023/04/01 04:23:46;;;;;;;12.10;11.70;;;9.00;99.90;;;;;;4876774;29;20488;-81
2023/04/01 04:26:15;;;;;;;12.80;12.30;;;8.90;99.90;;;;;;4876541;29;20471;-81
2023/04/01 04:28:42;;;;;;;12.40;12.00;;;8.90;99.90;;;;;;4876552;29;20471;-82
2023/04/01 04:31:09;;;;;;;12.80;12.27;;;8.90;99.90;;;;;;4876418;29;20902;-81
2023/04/01 04:33:36;;;;;;;12.10;11.70;;;8.90;99.90;;;;;;4876287;29;21020;-82
2023/04/01 04:36:04;;;;;;;11.80;11.40;;;8.90;99.90;;;;;;4876931;29;20468;-82
2023/04/01 04:38:31;;;;;;;11.83;11.47;;;8.80;99.90;;;;;;4876533;29;20456;-82
2023/04/01 04:40:59;;;;;;;11.80;11.40;;;8.80;99.90;;;;;;4876272;29;20456;-81
2023/04/01 04:43:26;;;;;;;11.93;11.53;;;8.70;99.90;;;;;;4876019;29;20567;-81
2023/04/01 04:45:53;;;;;;;10.53;10.23;;;8.70;99.90;;;;;;4876127;29;20487;-80
2023/04/01 04:48:20;;;;;;;11.10;10.70;;;8.70;99.90;;;;;;4876116;29;20464;-81
2023/04/01 04:50:47;;;;;;;11.60;11.20;;;8.70;99.90;;;;;;4876630;29;20495;-80
2023/04/01 04:53:15;;;;;;;11.37;10.90;;;8.70;99.90;;;;;;4879011;29;20822;-81
2023/04/01 04:55:44;;;;;;;12.63;12.13;;;8.80;99.90;;;;;;4882748;29;20986;-80
2023/04/01 04:58:13;;;;;;;12.20;11.80;;;8.80;99.90;;;;;;4876512;29;20464;-80
2023/04/01 05:00:39;;;;;;;11.90;11.50;;;8.80;99.90;;;;;;4875852;29;20456;-80
2023/04/01 05:03:06;;;;;;;11.30;10.97;;;8.80;99.90;;;;;;4875851;29;20558;-81
2023/04/01 05:05:33;;;;;;;12.03;11.57;;;8.80;99.90;;;;;;4875965;29;20820;-81
2023/04/01 05:07:59;;;;;;;12.10;11.70;;;8.80;99.90;;;;;;4875930;29;20459;-81
2023/04/01 05:10:26;;;;;;;12.27;11.87;;;8.80;99.90;;;;;;4875381;29;20460;-77
2023/04/01 05:12:53;;;;;;;12.67;12.27;;;8.80;99.90;;;;;;4875249;29;20546;-77
2023/04/01 05:15:21;;;;;;;12.53;12.13;;;8.80;99.90;;;;;;4875523;29;20977;-77
2023/04/01 05:17:48;;;;;;;11.40;10.97;;;8.80;99.90;;;;;;4875746;29;20456;-77
2023/04/01 05:20:15;;;;;;;12.00;11.50;;;8.90;99.90;;;;;;4875666;29;20460;-77
2023/04/01 05:22:42;;;;;;;12.13;11.70;;;8.90;99.90;;;;;;4875429;29;20538;-77
2023/04/01 05:25:09;;;;;;;12.63;12.20;;;8.90;99.90;;;;;;4875482;29;20483;-77
2023/04/01 05:27:36;;;;;;;13.13;12.53;;;9.00;99.90;;;;;;4875321;29;20471;-80
2023/04/01 05:30:03;;;;;;;13.63;13.00;;;9.00;99.90;;;;;;4875698;29;20844;-79
2023/04/01 05:32:31;;;;;;;11.70;11.40;;;9.00;99.90;;;;;;4875550;29;20496;-80
2023/04/01 05:34:58;;;;;;;12.03;11.53;;;9.10;99.90;;;;;;4874858;29;20489;-79
2023/04/01 05:37:25;;;;;;;13.30;12.40;;;9.10;99.90;;;;;;4873889;29;20452;-79
2023/04/01 05:39:52;;;;;;;11.70;11.20;;;9.10;99.90;;;;;;4873903;29;20540;-80
2023/04/01 05:42:18;;;;;;;12.13;11.70;;;9.20;99.90;;;;;;4872619;29;20460;-79
2023/04/01 05:44:45;;;;;;;11.70;11.30;;;9.30;99.90;;;;;;4873849;29;20860;-78
2023/04/01 05:47:12;;;;;;;11.73;11.40;;;9.40;99.90;;;;;;4873705;29;20496;-77
2023/04/01 05:49:40;;;;;;;11.93;11.30;;;9.50;99.90;;;;;;4871157;29;20475;-80
2023/04/01 05:52:06;;;;;;;11.57;11.10;;;9.50;99.90;;;;;;4873699;29;20488;-79
2023/04/01 05:54:34;;;;;;;12.43;12.03;;;9.60;99.90;;;;;;4873745;29;20456;-78
2023/04/01 05:57:01;;;;;;;10.93;10.63;;;9.70;99.90;;;;;;4871622;29;20444;-78
2023/04/01 05:59:27;;;;;;;12.00;11.50;;;9.80;99.90;;;;;;4873750;29;20863;-78
2023/04/01 06:01:54;;;;;;;10.57;10.20;;;9.90;99.90;;;;;;4873705;29;20459;-80
2023/04/01 06:04:21;;;;;;;13.00;12.30;;;10.00;99.90;;;;;;4873715;29;20547;-78
2023/04/01 06:06:49;;;;;;;11.67;11.27;;;10.10;99.90;;;;;;4873749;29;20821;-77
2023/04/01 06:09:17;;;;;;;10.43;10.00;;;10.20;99.90;;;;;;4871586;29;20456;-77
2023/04/01 06:11:59;;;;;;;10.27;9.87;;;10.40;99.90;;;;;;4873118;29;20497;-76
2023/04/01 06:14:38;;;;;;;11.23;10.73;;;10.40;99.90;;;;;;4871894;29;20444;-76
2023/04/01 06:17:20;;;;;;;10.60;10.30;;;10.50;99.90;;;;;;4872131;29;20456;-76
2023/04/01 06:19:54;;;;;;;10.93;10.43;;;10.50;99.90;;;;;;4873811;29;20448;-76
2023/04/01 06:22:47;;;;;;;10.63;10.23;;;10.70;99.90;;;;;;4871505;29;20448;-77
2023/04/01 06:25:38;;;;;;;10.63;10.23;;;10.80;99.90;;;;;;4876142;29;20444;-79
2023/04/01 06:28:34;;;;;;;10.93;10.40;;;10.90;99.90;;;;;;4875591;29;20479;-76
2023/04/01 06:31:07;;;;;;;11.50;11.00;;;11.30;99.90;;;;;;4839652;29;20444;-76
2023/04/01 06:33:50;;;;;;;10.20;9.90;;;11.30;99.90;;;;;;4877506;29;20456;-76
2023/04/01 06:36:47;;;;;;;11.00;10.50;;;11.30;99.90;;;;;;4877298;29;20452;-77
2023/04/01 06:39:30;;;;;;;10.83;10.43;;;11.40;99.90;;;;;;4878927;29;20459;-77
2023/04/01 06:42:25;;;;;;;10.17;9.70;;;11.50;99.90;;;;;;4877916;29;20468;-76
2023/04/01 06:45:04;;;;;;;10.37;9.97;;;11.40;99.90;;;;;;4861847;29;20496;-73
2023/04/01 06:47:44;;;;;;;10.50;10.13;;;11.40;99.90;;;;;;4879181;29;20515;-73
2023/04/01 06:50:24;;;;;;;11.10;10.50;;;11.50;99.90;;;;;;4878856;29;20455;-75
2023/04/01 06:52:59;;;;;;;10.80;10.40;;;11.50;99.90;;;;;;4878327;29;20479;-72
2023/04/01 06:55:35;;;;;;;9.60;9.27;;;11.50;99.90;;;;;;4878459;29;20544;-72
2023/04/01 06:58:05;;;;;;;9.63;9.33;;;11.40;99.90;;;;;;4878447;29;20468;-71
2023/04/01 07:00:35;;;;;;;9.77;9.43;;;11.30;99.90;;;;;;4878438;29;21030;-73
2023/04/01 07:03:10;;;;;;;9.07;8.83;;;11.30;99.90;;;;;;4878452;29;20947;-72
2023/04/01 07:05:38;;;;;;;9.20;8.90;;;11.30;99.90;;;;;;4878148;29;20891;-74
2023/04/01 07:08:09;;;;;;;8.93;8.43;;;11.40;99.90;;;;;;4877603;29;20528;-73
2023/04/01 07:10:46;;;;;;;9.07;8.73;;;11.50;99.90;;;;;;4876145;29;20552;-73
2023/04/01 07:13:19;;;;;;;9.43;9.13;;;11.60;99.90;;;;;;4877698;29;20811;-73
2023/04/01 07:15:59;;;;;;;10.80;10.30;;;11.70;99.90;;;;;;4874914;29;20476;-73
2023/04/01 07:18:33;;;;;;;10.33;9.93;;;11.80;99.90;;;;;;4874742;29;20483;-73
2023/04/01 07:21:01;;;;;;;10.40;9.93;;;11.80;99.90;;;;;;4877750;29;20451;-73
2023/04/01 07:23:33;;;;;;;9.57;9.17;;;11.70;99.90;;;;;;4877883;29;20827;-73
2023/04/01 07:26:18;;;;;;;10.00;9.50;;;11.80;99.90;;;;;;4878055;29;20460;-74
2023/04/01 07:28:44;;;;;;;10.20;9.73;;;11.80;99.90;;;;;;4878074;29;20467;-73
2023/04/01 07:31:23;;;;;;;10.57;9.97;;;11.80;99.90;;;;;;4877715;29;20820;-73
2023/04/01 07:33:58;;;;;;;9.97;9.63;;;11.70;99.90;;;;;;4877870;29;20468;-73
2023/04/01 07:36:33;;;;;;;10.03;9.50;;;11.60;99.90;;;;;;4877543;29;20459;-73
2023/04/01 07:39:08;;;;;;;8.50;8.23;;;11.60;99.90;;;;;;4877895;29;20459;-73
2023/04/01 07:41:45;;;;;;;9.70;9.30;;;11.70;99.90;;;;;;4877381;29;20472;-73
2023/04/01 07:44:17;;;;;;;8.97;8.67;;;11.60;99.90;;;;;;4877243;29;20483;-71
2023/04/01 07:46:56;;;;;;;8.90;8.60;;;11.60;99.90;;;;;;4877659;29;20468;-73
2023/04/01 07:49:31;;;;;;;9.40;9.10;;;11.70;99.90;;;;;;4877373;29;20460;-74
2023/04/01 07:52:03;;;;;;;10.40;10.00;;;11.70;99.90;;;;;;4877105;29;21032;-74
2023/04/01 07:54:39;;;;;;;10.50;10.10;;;11.70;99.90;;;;;;4877374;29;20475;-73
2023/04/01 07:57:12;;;;;;;8.37;8.00;;;11.90;99.90;;;;;;4877057;29;20482;-73
2023/04/01 07:59:47;;;;;;;8.80;8.50;;;12.00;99.90;;;;;;4877165;29;20461;-74
2023/04/01 08:02:26;;;;;;;9.00;8.70;;;11.90;99.90;;;;;;4877324;29;20451;-74
2023/04/01 08:05:04;;;;;;;9.73;9.43;;;12.00;99.90;;;;;;4877000;29;20491;-74
2023/04/01 08:07:41;;;;;;;8.63;8.33;;;11.90;99.90;;;;;;4877425;29;20541;-74
2023/04/01 08:10:18;;;;;;;8.60;8.30;;;11.80;99.90;;;;;;4875477;29;20471;-73
2023/04/01 08:12:55;;;;;;;9.87;9.47;;;11.70;99.90;;;;;;4876998;29;20502;-74
2023/04/01 08:15:27;;;;;;;10.63;10.20;;;11.70;99.90;;;;;;4877061;29;20452;-74
2023/04/01 08:18:15;;;;;;;8.90;8.60;;;11.90;99.90;;;;;;4877014;29;20719;-73
2023/04/01 08:20:47;;;;;;;9.80;9.40;;;11.80;99.90;;;;;;4877114;29;20459;-74
2023/04/01 08:23:16;;;;;;;9.67;9.27;;;11.90;99.90;;;;;;4877205;29;20452;-73
2023/04/01 08:25:49;;;;;;;9.80;9.40;;;12.00;99.90;;;;;;4876985;29;20452;-74
2023/04/01 08:28:22;;;;;;;10.33;9.93;;;12.10;99.90;;;;;;4877469;29;20448;-74
2023/04/01 08:30:54;;;;;;;8.07;7.77;;;12.10;99.90;;;;;;4877366;29;20448;-73
2023/04/01 08:33:26;;;;;;;9.07;8.67;;;12.30;99.90;;;;;;4876870;29;20569;-73
2023/04/01 08:35:57;;;;;;;9.53;9.23;;;12.40;99.90;;;;;;4877249;29;20463;-73
2023/04/01 08:38:29;;;;;;;10.00;9.60;;;12.30;99.90;;;;;;4877135;29;20656;-74
2023/04/01 08:41:01;;;;;;;8.93;8.63;;;12.40;99.90;;;;;;4875083;29;20467;-74
2023/04/01 08:43:59;;;;;;;8.80;8.50;;;12.20;99.90;;;;;;4876691;29;20490;-74
2023/04/01 08:47:08;;;;;;;9.30;8.97;;;11.90;99.90;;;;;;4866597;29;20990;-74
2023/04/01 08:49:57;;;;;;;10.53;10.13;;;11.70;99.90;;;;;;4876948;29;20464;-77
2023/04/01 08:52:34;;;;;;;18.27;17.67;;;11.40;99.90;;;;;;4876772;29;20977;-75
2023/04/01 08:55:28;;;;;;;25.23;24.33;;;11.10;99.90;;;;;;4877167;29;20462;-77
2023/04/01 08:58:18;;;;;;;29.60;28.50;;;10.90;99.90;;;;;;4877068;29;20460;-76
2023/04/01 09:00:51;;;;;;;30.37;29.17;;;10.60;99.90;;;;;;4871462;29;20476;-77
2023/04/01 09:03:45;;;;;;;31.10;29.70;;;10.40;99.90;;;;;;4877299;29;20604;-78
2023/04/01 09:06:32;;;;;;;31.37;30.07;;;10.40;99.90;;;;;;4876887;29;20456;-80
2023/04/01 09:09:28;;;;;;;32.27;30.80;;;10.30;99.90;;;;;;4876863;29;20464;-80
2023/04/01 09:12:25;;;;;;;29.57;28.37;;;10.20;99.90;;;;;;4876433;29;21161;-79
2023/04/01 09:15:12;;;;;;;28.37;27.17;;;10.20;99.90;;;;;;4876564;29;20456;-78
2023/04/01 09:18:00;;;;;;;29.97;28.87;;;10.20;99.90;;;;;;4876601;29;20456;-77
2023/04/01 09:20:43;;;;;;;30.67;29.43;;;10.30;99.90;;;;;;4876604;29;20456;-77
2023/04/01 09:23:22;;;;;;;29.90;28.30;;;10.40;99.90;;;;;;4876313;29;20463;-77
2023/04/01 09:26:00;;;;;;;26.10;25.17;;;10.50;99.90;;;;;;4876205;29;20467;-76
2023/04/01 09:28:34;;;;;;;24.07;23.27;;;10.40;99.90;;;;;;4876473;29;20486;-76
2023/04/01 09:31:22;;;;;;;20.40;19.50;;;10.50;99.90;;;;;;4876637;29;20452;-77
2023/04/01 09:34:21;;;;;;;17.53;16.93;;;10.50;99.90;;;;;;4876192;29;20488;-76
2023/04/01 09:37:03;;;;;;;18.80;18.10;;;10.70;99.90;;;;;;4876431;29;20452;-76
2023/04/01 09:39:37;;;;;;;17.70;16.70;;;11.10;99.90;;;;;;4876575;29;20451;-76
2023/04/01 09:42:17;;;;;;;15.70;15.20;;;11.30;99.90;;;;;;4876414;29;20507;-76
2023/04/01 09:44:49;;;;;;;18.50;17.80;;;11.60;99.90;;;;;;4876420;29;20488;-76
2023/04/01 09:47:29;;;;;;;19.60;19.00;;;11.60;99.90;;;;;;4876384;29;20451;-76
2023/04/01 09:50:25;;;;;;;20.07;19.30;;;11.50;99.90;;;;;;4876108;29;20452;-76
2023/04/01 09:53:05;;;;;;;19.43;18.83;;;11.30;99.90;;;;;;4876112;29;20495;-76
2023/04/01 09:56:14;;;;;;;17.70;17.10;;;11.20;99.90;;;;;;4876551;29;20831;-76
2023/04/01 09:59:18;;;;;;;20.67;19.97;;;11.10;99.90;;;;;;4831997;29;20458;-76
2023/04/01 10:02:02;;;;;;;19.10;18.50;;;11.10;99.90;;;;;;4841418;29;20459;-76
2023/04/01 10:05:05;;;;;;;17.80;17.20;;;11.10;99.90;;;;;;4878375;29;20470;-81
2023/04/01 10:08:01;;;;;;;15.80;15.30;;;11.10;99.90;;;;;;4879991;29;20471;-76
2023/04/01 10:11:03;;;;;;;14.30;13.90;;;11.20;99.90;;;;;;4880330;29;20468;-79
2023/04/01 10:13:50;;;;;;;13.70;13.30;;;11.20;99.90;;;;;;4851218;29;20506;-80
2023/04/01 10:16:38;;;;;;;11.57;11.17;;;11.30;99.90;;;;;;4879745;29;20475;-76
2023/04/01 10:19:49;;;;;;;9.60;9.30;;;11.20;99.90;;;;;;4880044;29;20463;-76
2023/04/01 10:22:43;;;;;;;9.50;9.20;;;11.30;99.90;;;;;;4879719;29;20943;-74
2023/04/01 10:25:28;;;;;;;10.53;10.23;;;11.60;99.90;;;;;;4879161;29;20818;-73
2023/04/01 10:28:21;;;;;;;7.80;7.60;;;11.90;99.90;;;;;;4879378;29;20526;-73
2023/04/01 10:31:24;;;;;;;9.00;8.70;;;12.00;99.90;;;;;;4879573;29;20543;-73
2023/04/01 10:34:20;;;;;;;9.27;9.00;;;12.10;99.90;;;;;;4879173;29;21033;-73
2023/04/01 10:36:54;;;;;;;10.40;10.00;;;12.50;99.90;;;;;;4879673;29;20523;-72
2023/04/01 10:40:06;;;;;;;9.07;8.77;;;12.80;99.90;;;;;;4879485;29;20496;-73
2023/04/01 10:43:11;;;;;;;9.70;9.40;;;12.80;99.90;;;;;;4879517;29;20475;-72
2023/04/01 10:46:22;;;;;;;11.27;10.87;;;12.70;99.90;;;;;;4879232;29;20694;-73
2023/04/01 10:49:16;;;;;;;10.70;10.40;;;12.60;99.90;;;;;;4879258;29;20467;-73
2023/04/01 10:52:18;;;;;;;9.80;9.50;;;12.30;99.90;;;;;;4878983;29;20799;-73
2023/04/01 10:55:18;;;;;;;9.70;9.40;;;12.30;99.90;;;;;;4856882;29;20873;-72
2023/04/01 10:58:06;;;;;;;9.17;8.97;;;12.30;99.90;;;;;;4878743;29;20463;-73
2023/04/01 11:01:08;;;;;;;9.50;9.20;;;12.60;99.90;;;;;;4879132;29;20799;-73
2023/04/01 11:04:03;;;;;;;9.90;9.60;;;12.50;99.90;;;;;;4878963;29;20496;-73
2023/04/01 11:06:56;;;;;;;10.57;10.27;;;12.10;99.90;;;;;;4878876;29;21045;-73
2023/04/01 11:10:10;;;;;;;11.40;11.10;;;11.90;99.90;;;;;;4878354;29;20462;-74
2023/04/01 11:13:12;;;;;;;10.57;10.27;;;11.90;99.90;;;;;;4878421;29;20496;-74
2023/04/01 11:15:54;;;;;;;10.10;9.80;;;11.80;99.90;;;;;;4878376;29;20581;-72
2023/04/01 11:19:15;;;;;;;9.10;8.80;;;11.90;99.90;;;;;;4878609;29;20462;-72
2023/04/01 11:21:55;;;;;;;8.47;8.17;;;12.10;99.90;;;;;;4878482;29;20460;-72
2023/04/01 11:24:36;;;;;;;9.00;8.80;;;12.40;99.90;;;;;;4878402;29;20543;-72
2023/04/01 11:27:22;;;;;;;10.37;10.07;;;12.80;99.90;;;;;;4878519;29;20874;-72
2023/04/01 11:30:02;;;;;;;10.47;10.17;;;13.30;99.90;;;;;;4878256;29;20950;-73
2023/04/01 11:32:44;;;;;;;9.40;9.07;;;13.30;99.90;;;;;;4878299;29;20554;-73
2023/04/01 11:35:33;;;;;;;10.03;9.73;;;13.30;99.90;;;;;;4878220;29;20467;-72
2023/04/01 11:38:13;;;;;;;9.70;9.40;;;13.40;99.90;;;;;;4878454;29;20452;-72
2023/04/01 11:40:46;;;;;;;10.00;9.70;;;13.30;99.90;;;;;;4878026;29;20487;-72
2023/04/01 11:43:19;;;;;;;9.97;9.67;;;13.60;99.90;;;;;;4877937;29;20848;-72
2023/04/01 11:45:54;;;;;;;10.20;9.90;;;13.70;99.90;;;;;;4878279;29;20456;-76
2023/04/01 11:48:53;;;;;;;9.00;8.80;;;13.80;99.90;;;;;;4878012;29;20850;-76
2023/04/01 11:51:54;;;;;;;8.60;8.40;;;13.90;99.90;;;;;;4872375;29;20892;-77
2023/04/01 11:54:38;;;;;;;8.30;8.10;;;13.90;99.90;;;;;;4870228;29;20496;-76
2023/04/01 11:57:23;;;;;;;9.57;9.27;;;14.10;99.90;;;;;;4875228;29;20460;-77
2023/04/01 12:00:11;;;;;;;9.60;9.20;;;14.10;99.90;;;;;;4876174;29;20461;-77
2023/04/01 12:02:49;;;;;;;9.07;8.77;;;13.90;99.90;;;;;;4874351;29;20453;-77
2023/04/01 12:05:43;;;;;;;9.60;9.30;;;13.90;99.90;;;;;;4874476;29;20463;-77
2023/04/01 12:08:24;;;;;;;9.63;9.33;;;13.50;99.90;;;;;;4875679;29;20447;-77
2023/04/01 12:10:58;;;;;;;9.60;9.30;;;13.10;99.90;;;;;;4876279;29;20449;-77
2023/04/01 12:13:35;;;;;;;10.00;9.70;;;13.00;99.90;;;;;;4876276;29;20484;-77
2023/04/01 12:16:29;;;;;;;9.90;9.60;;;13.00;99.90;;;;;;4874843;29;20456;-78
2023/04/01 12:19:03;;;;;;;8.87;8.67;;;13.10;99.90;;;;;;4873783;29;20452;-77
2023/04/01 12:21:36;;;;;;;9.40;9.10;;;13.20;99.90;;;;;;4875345;29;20448;-78
2023/04/01 12:24:35;;;;;;;10.17;9.87;;;13.20;99.90;;;;;;4876408;29;20490;-80
2023/04/01 12:27:20;;;;;;;9.70;9.40;;;13.10;99.90;;;;;;4870005;29;20857;-83
2023/04/01 12:30:09;;;;;;;11.03;10.73;;;13.10;99.90;;;;;;4875326;29;20452;-81
2023/04/01 12:32:42;;;;;;;12.10;11.70;;;13.20;99.90;;;;;;4873491;29;20456;-83
2023/04/01 12:35:21;;;;;;;12.00;11.70;;;12.90;99.90;;;;;;4891144;29;20440;-88
2023/04/01 12:37:56;;;;;;;11.83;11.43;;;12.80;99.90;;;;;;4881629;29;20463;-84
2023/04/01 12:40:52;;;;;;;10.50;10.20;;;12.50;99.90;;;;;;4878986;29;20456;-90
2023/04/01 12:43:45;;;;;;;10.80;10.50;;;12.60;99.90;;;;;;4880405;29;20487;-86
2023/04/01 12:46:19;;;;;;;10.10;9.80;;;12.70;99.90;;;;;;4875421;29;20449;-79
2023/04/01 12:49:15;;;;;;;8.20;8.00;;;12.90;99.90;;;;;;4874371;29;20447;-78
2023/04/01 12:51:57;;;;;;;9.57;9.27;;;13.10;99.90;;;;;;4873726;29;20467;-78
2023/04/01 12:54:50;;;;;;;9.83;9.53;;;13.40;99.90;;;;;;4874109;29;20484;-77
2023/04/01 12:57:37;;;;;;;9.37;9.10;;;13.40;99.90;;;;;;4873324;29;20452;-76
2023/04/01 13:00:24;;;;;;;8.63;8.43;;;13.50;99.90;;;;;;4873806;29;20810;-76
2023/04/01 13:03:04;;;;;;;8.80;8.60;;;13.50;99.90;;;;;;4876401;29;20467;-76
2023/04/01 13:06:03;;;;;;;10.17;9.87;;;13.80;99.90;;;;;;4876820;29;20459;-77
2023/04/01 13:08:40;;;;;;;8.67;8.37;;;13.80;99.90;;;;;;4844813;29;20713;-76
2023/04/01 13:11:20;;;;;;;9.30;9.00;;;13.90;99.90;;;;;;4876347;29;20448;-78
2023/04/01 13:14:14;;;;;;;9.03;8.73;;;13.90;99.90;;;;;;4876904;29;20494;-77
2023/04/01 13:16:47;;;;;;;8.83;8.63;;;13.70;99.90;;;;;;4876602;29;20464;-77
2023/04/01 13:19:22;;;;;;;8.80;8.60;;;13.50;99.90;;;;;;4876450;29;20554;-77
2023/04/01 13:21:57;;;;;;;8.17;7.87;;;13.60;99.90;;;;;;4876484;29;20459;-76
2023/04/01 13:24:36;;;;;;;8.80;8.50;;;13.60;99.90;;;;;;4876412;29;20455;-76
2023/04/01 13:27:10;;;;;;;8.63;8.43;;;13.50;99.90;;;;;;4876234;29;20467;-76